Time;durP1;ratioP1;P1;durP2;ratioP2;P2;SDS_P1;SDS_P2;PMS_P1;PMS_P2;Temp;Humidity;BMP_temperature;BMP_pressure;BME280_temperature;BME280_humidity;BME280_pressure;Samples;Min_cycle;Max_cycle;Signal;HPM_P1;HPM_P2
2022/11/12 00:02:21;;;;;;;14.57;11.55;;;;;;;8.04;96.89;101854.72;10544828;28;20449;-73
2022/11/12 00:07:22;;;;;;;15.70;11.05;;;;;;;8.11;96.74;101853.53;10547360;28;20078;-71
2022/11/12 00:12:23;;;;;;;15.52;10.55;;;;;;;8.16;96.86;101864.78;10553364;28;20054;-71
2022/11/12 00:17:25;;;;;;;11.88;9.00;;;;;;;8.11;96.75;101872.94;10526108;28;20051;-73
2022/11/12 00:22:26;;;;;;;14.15;10.40;;;;;;;8.19;96.85;101869.09;10525710;28;20048;-72
2022/11/12 00:27:28;;;;;;;20.83;9.63;;;;;;;8.28;95.82;101863.38;10509222;28;20138;-71
2022/11/12 00:32:29;;;;;;;18.95;10.60;;;;;;;8.27;95.85;101859.84;10521844;28;20809;-71
2022/11/12 00:37:31;;;;;;;14.23;10.57;;;;;;;8.17;96.83;101858.53;10530475;28;20194;-68
2022/11/12 00:42:32;;;;;;;15.57;10.35;;;;;;;8.34;96.72;101868.38;10555670;28;20484;-72
2022/11/12 00:47:34;;;;;;;13.05;9.80;;;;;;;8.44;95.73;101861.78;10530465;28;20043;-70
2022/11/12 00:52:35;;;;;;;14.38;10.82;;;;;;;8.44;95.60;101851.16;10508591;28;20473;-73
2022/11/12 00:57:37;;;;;;;13.38;10.23;;;;;;;8.64;94.64;101844.06;10505149;28;20044;-71
2022/11/12 01:02:38;;;;;;;25.55;10.20;;;;;;;8.67;93.40;101836.78;10524966;28;20156;-71
2022/11/12 01:07:47;;;;;;;35.30;11.07;;;;;;;8.59;93.30;101849.59;10526129;28;20104;-74
2022/11/12 01:12:56;;;;;;;16.13;10.65;;;;;;;8.58;93.69;101836.38;10520731;28;20044;-72
2022/11/12 01:17:57;;;;;;;16.52;12.90;;;;;;;8.53;94.50;101846.34;10519339;28;20048;-71
2022/11/12 01:22:58;;;;;;;14.68;10.68;;;;;;;8.57;94.42;101835.53;10528285;28;20060;-71
2022/11/12 01:27:59;;;;;;;15.85;12.07;;;;;;;8.53;95.18;101841.91;10522092;28;20071;-70
2022/11/12 01:33:01;;;;;;;25.58;12.32;;;;;;;8.58;94.26;101841.69;10533645;28;20047;-73
2022/11/12 01:38:02;;;;;;;12.88;10.30;;;;;;;8.60;94.53;101837.16;10572024;28;20044;-74
2022/11/12 01:43:11;;;;;;;15.98;12.25;;;;;;;8.51;94.82;101834.94;10573379;28;20050;-72
2022/11/12 01:48:24;;;;;;;14.23;11.40;;;;;;;8.37;95.99;101833.75;10518589;28;20044;-73
2022/11/12 01:53:29;;;;;;;18.47;13.23;;;;;;;8.32;96.30;101825.16;10539922;28;20047;-71
2022/11/12 01:58:33;;;;;;;15.68;11.15;;;;;;;8.39;97.45;101847.84;10536457;28;20035;-71
2022/11/12 02:03:35;;;;;;;17.88;11.88;;;;;;;8.30;96.69;101838.50;10539736;28;20111;-71
2022/11/12 02:08:37;;;;;;;20.20;12.43;;;;;;;8.24;97.28;101835.25;10529745;28;20059;-71
2022/11/12 02:13:57;;;;;;;19.58;13.85;;;;;;;8.30;97.45;101829.66;10516570;28;20036;-71
2022/11/12 02:18:59;;;;;;;19.90;13.50;;;;;;;8.39;97.37;101826.59;10508511;27;20057;-70
2022/11/12 02:24:25;;;;;;;19.27;13.82;;;;;;;8.38;96.49;101830.19;10535894;27;20043;-73
2022/11/12 02:29:26;;;;;;;26.05;12.60;;;;;;;8.29;96.54;101838.56;10562045;28;20050;-72
2022/11/12 02:34:28;;;;;;;18.15;13.90;;;;;;;8.29;97.18;101841.22;10558256;28;20177;-72
2022/11/12 02:39:29;;;;;;;19.20;12.15;;;;;;;8.28;97.12;101828.88;10549613;27;20059;-70
2022/11/12 02:44:31;;;;;;;32.30;14.77;;;;;;;8.28;96.45;101836.84;10554261;28;20044;-70
2022/11/12 02:49:32;;;;;;;21.20;13.80;;;;;;;8.26;97.43;101836.06;10531360;28;20709;-73
2022/11/12 02:54:34;;;;;;;32.90;13.55;;;;;;;8.16;98.22;101830.28;10536898;27;20677;-71
2022/11/12 02:59:35;;;;;;;37.80;13.32;;;;;;;8.12;98.78;101824.28;10529964;28;20048;-71
2022/11/12 03:04:36;;;;;;;18.48;12.07;;;;;;;8.16;99.00;101818.81;10527681;28;20719;-69
2022/11/12 03:09:38;;;;;;;17.08;12.27;;;;;;;8.21;99.32;101828.31;10519147;28;20051;-70
2022/11/12 03:14:39;;;;;;;20.85;12.93;;;;;;;8.27;98.28;101828.03;10521567;28;20052;-71
2022/11/12 03:19:40;;;;;;;17.58;13.57;;;;;;;8.26;98.62;101836.06;10532952;28;20628;-69
2022/11/12 03:24:41;;;;;;;15.85;11.25;;;;;;;8.26;98.22;101828.94;10536101;28;20044;-70
2022/11/12 03:29:43;;;;;;;14.23;11.07;;;;;;;8.28;98.37;101821.75;10527332;28;20052;-72
2022/11/12 03:34:44;;;;;;;13.82;11.13;;;;;;;8.25;98.14;101823.72;10496591;28;20048;-70
2022/11/12 03:39:45;;;;;;;24.08;12.60;;;;;;;8.17;97.69;101818.75;10507362;28;20052;-71
2022/11/12 03:44:46;;;;;;;17.92;12.98;;;;;;;8.10;98.56;101820.81;10530100;28;20040;-70
2022/11/12 03:49:48;;;;;;;16.98;13.32;;;;;;;8.16;98.65;101818.81;10530943;28;20048;-69
2022/11/12 03:54:49;;;;;;;14.45;12.07;;;;;;;8.18;98.35;101819.59;10525474;28;20059;-70
2022/11/12 03:59:50;;;;;;;15.20;11.75;;;;;;;8.13;98.10;101818.00;10524480;28;20044;-70
2022/11/12 04:10:13;;;;;;;13.80;11.75;;;;;;;8.16;97.97;101816.19;10521096;28;20036;-69
2022/11/12 04:15:14;;;;;;;18.67;11.98;;;;;;;8.02;96.75;101817.66;10521255;28;20062;-71
2022/11/12 04:30:55;;;;;;;21.02;11.15;;;;;;;7.99;97.84;101833.72;10534424;28;20047;-71
2022/11/12 04:35:56;;;;;;;12.27;10.82;;;;;;;7.97;98.11;101831.13;10521589;28;20035;-71
2022/11/12 04:46:17;;;;;;;15.15;9.00;;;;;;;7.98;98.55;101826.66;10523936;28;20043;-70
2022/11/12 04:56:38;;;;;;;16.58;9.18;;;;;;;7.93;97.70;101826.03;10523347;28;20055;-71
2022/11/12 05:01:40;;;;;;;9.55;8.10;;;;;;;7.86;99.10;101825.41;10519984;28;20588;-70
2022/11/12 05:06:52;;;;;;;9.70;8.25;;;;;;;7.88;97.86;101825.34;10513391;28;20044;-71
2022/11/12 05:11:56;;;;;;;11.07;8.75;;;;;;;7.87;97.36;101831.59;10535488;28;20097;-72
2022/11/12 05:16:58;;;;;;;14.23;9.70;;;;;;;7.82;96.48;101820.31;10516687;28;20506;-73
2022/11/12 05:22:05;;;;;;;18.00;9.25;;;;;;;7.96;95.89;101833.84;10558469;28;20044;-72
2022/11/12 05:27:12;;;;;;;8.02;7.22;;;;;;;7.97;96.56;101832.88;10530555;28;20062;-70
2022/11/12 05:32:15;;;;;;;9.80;8.25;;;;;;;7.91;95.19;101830.50;10532334;28;20040;-71
2022/11/12 05:37:17;;;;;;;12.70;9.52;;;;;;;7.84;96.02;101829.09;10515222;28;20031;-71
2022/11/12 05:42:18;;;;;;;9.43;7.80;;;;;;;7.87;95.54;101834.25;10518659;27;20047;-71
2022/11/12 05:47:19;;;;;;;17.40;8.95;;;;;;;7.78;94.88;101830.22;10520247;28;20048;-72
2022/11/12 05:52:20;;;;;;;10.90;8.90;;;;;;;7.65;94.66;101832.50;10553898;28;20345;-73
2022/11/12 05:57:22;;;;;;;20.30;10.20;;;;;;;7.57;95.94;101832.84;10550097;28;20056;-73
2022/11/12 06:02:23;;;;;;;12.07;8.88;;;;;;;7.59;96.81;101835.44;10533171;28;20051;-70
2022/11/12 06:07:24;;;;;;;11.68;8.40;;;;;;;7.56;96.22;101827.63;10535479;28;20063;-71
2022/11/12 06:12:26;;;;;;;9.70;7.82;;;;;;;7.50;96.56;101835.84;10504619;27;20048;-70
2022/11/12 06:17:27;;;;;;;10.75;8.52;;;;;;;7.53;95.96;101841.84;10526895;28;20044;-71
2022/11/12 06:22:29;;;;;;;11.77;8.50;;;;;;;7.53;96.00;101838.34;10505137;28;20161;-71
2022/11/12 06:27:30;;;;;;;8.25;7.43;;;;;;;7.60;95.47;101850.41;10524690;28;20150;-70
2022/11/12 06:32:32;;;;;;;8.48;7.65;;;;;;;7.81;94.79;101853.06;10517023;28;20063;-71
2022/11/12 06:37:33;;;;;;;8.50;7.70;;;;;;;7.78;93.62;101852.28;10526152;28;20055;-71
2022/11/12 06:42:35;;;;;;;8.50;7.28;;;;;;;7.79;92.81;101854.00;10521992;28;20044;-71
2022/11/12 06:47:36;;;;;;;8.88;7.47;;;;;;;7.75;92.93;101856.84;10531411;28;20059;-72
2022/11/12 06:52:37;;;;;;;8.35;6.70;;;;;;;7.75;92.51;101857.72;10539998;27;20051;-72
2022/11/12 06:57:38;;;;;;;9.88;6.95;;;;;;;7.76;92.76;101862.09;10514441;28;20055;-73
2022/11/12 07:02:40;;;;;;;7.90;7.07;;;;;;;7.81;92.69;101855.69;10507870;28;20055;-71
2022/11/12 07:07:41;;;;;;;11.27;7.57;;;;;;;7.87;91.93;101856.31;10504560;28;20552;-71
2022/11/12 07:12:42;;;;;;;9.20;7.57;;;;;;;7.96;91.23;101865.66;10553169;28;20131;-71
2022/11/12 07:17:45;;;;;;;8.63;7.13;;;;;;;8.14;90.07;101872.81;10550367;28;20232;-69
2022/11/12 07:22:46;;;;;;;8.40;6.95;;;;;;;8.01;90.50;101868.97;10527878;28;20062;-70
2022/11/12 07:27:48;;;;;;;9.13;8.20;;;;;;;7.96;90.80;101866.50;10491210;28;20052;-70
2022/11/12 07:32:50;;;;;;;8.70;7.45;;;;;;;7.93;90.11;101869.31;10503340;27;20935;-69
2022/11/12 07:37:52;;;;;;;10.13;7.78;;;;;;;7.96;89.04;101870.97;10488178;28;20056;-68
2022/11/12 07:42:59;;;;;;;9.07;7.75;;;;;;;7.93;89.33;101866.66;10489968;28;20047;-69
2022/11/12 07:48:01;;;;;;;8.75;7.85;;;;;;;7.96;88.97;101865.66;10503003;28;20537;-68
2022/11/12 07:53:02;;;;;;;9.05;7.55;;;;;;;7.89;89.22;101861.56;10503581;27;20056;-70
2022/11/12 07:58:03;;;;;;;8.52;7.47;;;;;;;7.97;89.34;101862.06;10483942;28;20417;-71
2022/11/12 08:03:05;;;;;;;8.68;7.28;;;;;;;8.12;88.54;101856.09;10505497;28;20055;-69
2022/11/12 08:08:06;;;;;;;10.70;8.82;;;;;;;8.06;87.97;101859.03;10502673;28;20067;-71
2022/11/12 08:13:08;;;;;;;8.88;7.40;;;;;;;8.09;87.89;101861.53;10501219;28;20080;-71
2022/11/12 08:18:09;;;;;;;8.82;7.22;;;;;;;8.12;87.84;101866.72;10506413;28;20054;-71
2022/11/12 08:23:10;;;;;;;7.82;7.03;;;;;;;8.16;86.91;101877.19;10489321;28;20051;-69
2022/11/12 08:28:12;;;;;;;10.18;7.13;;;;;;;8.19;87.38;101866.44;10484786;28;20078;-70
2022/11/12 08:33:13;;;;;;;8.85;7.25;;;;;;;7.99;86.95;101872.59;10490785;28;20063;-70
2022/11/12 08:38:15;;;;;;;11.65;8.75;;;;;;;7.82;87.32;101874.22;10512094;28;20050;-70
2022/11/12 08:43:16;;;;;;;9.95;8.82;;;;;;;7.91;87.52;101865.88;10519325;28;20051;-70
2022/11/12 08:48:18;;;;;;;10.40;9.32;;;;;;;8.04;87.51;101879.44;10534011;28;20058;-71
2022/11/12 08:53:21;;;;;;;10.65;8.80;;;;;;;7.94;86.81;101878.09;10540310;27;20645;-71
2022/11/12 08:58:23;;;;;;;9.30;8.40;;;;;;;7.97;87.35;101877.97;10523953;27;20122;-71
2022/11/12 09:03:25;;;;;;;9.30;8.38;;;;;;;7.94;87.01;101873.69;10553087;28;20051;-70
2022/11/12 09:08:27;;;;;;;8.90;7.90;;;;;;;8.02;87.08;101873.34;10554132;28;20043;-72
2022/11/12 09:13:28;;;;;;;9.05;8.15;;;;;;;7.97;86.70;101870.00;10529584;28;20054;-70
2022/11/12 09:18:31;;;;;;;9.70;8.45;;;;;;;8.02;86.63;101876.00;10526262;28;20068;-70
2022/11/12 09:23:33;;;;;;;11.95;10.75;;;;;;;7.98;87.10;101863.78;10516635;28;20196;-71
2022/11/12 09:28:35;;;;;;;11.00;9.90;;;;;;;8.00;86.40;101861.06;10540201;27;20059;-70
2022/11/12 09:33:36;;;;;;;10.95;9.50;;;;;;;8.02;86.46;101860.09;10522632;27;20051;-70
2022/11/12 09:38:38;;;;;;;12.77;10.82;;;;;;;8.04;85.78;101866.16;10499954;28;20084;-72
2022/11/12 09:43:46;;;;;;;14.15;12.20;;;;;;;8.00;85.55;101877.00;10517773;28;20060;-70
2022/11/12 09:48:55;;;;;;;11.90;10.52;;;;;;;8.03;86.24;101877.72;10522307;28;20055;-70
2022/11/12 09:53:58;;;;;;;12.70;11.35;;;;;;;8.09;86.54;101877.47;10521446;28;20054;-71
2022/11/12 09:58:59;;;;;;;17.98;11.15;;;;;;;8.34;85.84;101886.09;10528734;28;20062;-70
2022/11/12 10:04:07;;;;;;;13.15;11.82;;;;;;;8.19;85.38;101871.75;10507915;27;20873;-73
2022/11/12 10:09:47;;;;;;;12.30;11.10;;;;;;;8.23;86.39;101873.34;10532993;28;20058;-71
2022/11/12 10:20:54;;;;;;;12.68;11.48;;;;;;;8.37;84.57;101860.28;10496352;28;20055;-70
2022/11/12 10:25:58;;;;;;;12.60;11.32;;;;;;;8.53;84.34;101855.19;10504955;27;20593;-70
2022/11/12 10:31:12;;;;;;;19.02;12.43;;;;;;;8.69;84.19;101850.00;10507828;27;20052;-70
2022/11/12 10:36:32;;;;;;;13.30;12.00;;;;;;;8.66;83.33;101844.84;10490721;28;20059;-70
2022/11/12 10:41:34;;;;;;;12.80;11.57;;;;;;;8.58;83.17;101844.34;10487926;28;20062;-69
2022/11/12 10:46:36;;;;;;;12.82;11.63;;;;;;;8.58;83.81;101841.69;10505787;27;20054;-71
2022/11/12 10:51:38;;;;;;;13.38;12.13;;;;;;;8.57;83.07;101847.91;10505165;27;20052;-70
2022/11/12 10:56:39;;;;;;;11.50;10.40;;;;;;;8.54;82.90;101845.41;10508381;27;20059;-70
2022/11/12 11:01:42;;;;;;;11.18;10.13;;;;;;;8.85;83.59;101835.06;10533596;28;20115;-72
2022/11/12 11:06:46;;;;;;;12.00;10.90;;;;;;;8.97;81.63;101838.91;10518233;28;20680;-69
2022/11/12 11:11:50;;;;;;;11.85;10.75;;;;;;;8.99;81.60;101831.75;10508891;28;20052;-71
2022/11/12 11:16:55;;;;;;;12.35;11.15;;;;;;;9.12;81.07;101833.81;10492624;28;20065;-70
2022/11/12 11:22:11;;;;;;;12.55;11.45;;;;;;;9.25;80.27;101831.38;10507654;28;20536;-72
2022/11/12 11:27:34;;;;;;;13.70;12.30;;;;;;;9.02;80.61;101828.06;10504997;27;20047;-70
2022/11/12 11:33:02;;;;;;;14.38;13.07;;;;;;;9.16;80.84;101809.66;10505022;27;20052;-72
2022/11/12 11:38:19;;;;;;;13.35;11.98;;;;;;;9.34;80.59;101813.19;10503768;28;20051;-71
2022/11/12 11:43:33;;;;;;;13.63;12.30;;;;;;;9.31;79.71;101799.22;10502112;28;20058;-74
2022/11/12 11:49:02;;;;;;;15.90;14.40;;;;;;;9.34;79.74;101804.38;10507297;28;20047;-72
2022/11/12 11:54:33;;;;;;;13.65;12.43;;;;;;;9.66;79.31;101791.22;10532305;27;20054;-71
2022/11/12 11:59:55;;;;;;;15.13;13.70;;;;;;;9.96;76.97;101793.22;10534377;28;20575;-73
2022/11/12 12:05:09;;;;;;;14.77;13.27;;;;;;;10.07;76.94;101793.47;10533621;27;20055;-72
2022/11/12 12:10:10;;;;;;;15.33;13.83;;;;;;;9.93;77.03;101786.25;10520208;28;20047;-71
2022/11/12 12:15:31;;;;;;;15.75;14.25;;;;;;;9.83;77.89;101780.56;10523610;27;20290;-73
2022/11/12 12:20:48;;;;;;;15.73;14.23;;;;;;;10.00;77.57;101776.16;10500698;28;20051;-70
2022/11/12 12:25:52;;;;;;;16.90;15.20;;;;;;;10.10;76.28;101772.03;10485034;28;20048;-69
2022/11/12 12:31:12;;;;;;;15.13;13.63;;;;;;;10.30;75.39;101768.28;10504171;28;20135;-69
2022/11/12 12:36:18;;;;;;;12.60;11.40;;;;;;;10.82;73.91;101764.50;10503972;28;20052;-72
2022/11/12 12:41:28;;;;;;;13.38;12.15;;;;;;;11.05;72.30;101759.66;10506861;28;20051;-70
2022/11/12 12:46:37;;;;;;;12.82;11.57;;;;;;;11.46;71.14;101748.34;10534291;28;20058;-71
2022/11/12 12:51:38;;;;;;;13.25;12.02;;;;;;;11.95;69.49;101745.38;10550655;28;20248;-71
2022/11/12 12:56:46;;;;;;;12.40;11.35;;;;;;;12.22;67.75;101736.56;10551612;28;20107;-76
2022/11/12 13:01:55;;;;;;;13.07;11.90;;;;;;;13.21;63.83;101736.28;10545570;28;20676;-71
2022/11/12 13:06:57;;;;;;;13.25;12.07;;;;;;;13.63;60.99;101724.56;10505232;28;20043;-72
2022/11/12 13:17:06;;;;;;;12.60;11.43;;;;;;;14.01;60.20;101716.50;10508611;28;20055;-73
2022/11/12 13:22:16;;;;;;;12.85;11.68;;;;;;;13.75;60.76;101716.53;10519199;28;20051;-72
2022/11/12 13:27:37;;;;;;;13.18;11.98;;;;;;;13.45;61.92;101711.53;10506897;28;20535;-74
2022/11/12 13:32:45;;;;;;;16.48;14.93;;;;;;;13.08;63.06;101709.50;10517817;28;20066;-76
2022/11/12 13:37:49;;;;;;;12.63;11.52;;;;;;;13.07;63.20;101712.28;10500611;28;20056;-74
2022/11/12 13:42:51;;;;;;;;;;;;;;;13.38;62.85;101708.41;10520694;28;20071;-75
2022/11/12 13:47:52;;;;;;;12.30;11.10;;;;;;;13.35;63.07;101700.59;10504123;28;19924;-74
2022/11/12 13:52:54;;;;;;;12.20;11.13;;;;;;;13.12;64.22;101702.16;10514424;28;20425;-72
2022/11/12 13:57:55;;;;;;;12.77;11.77;;;;;;;12.71;65.28;101690.59;10509919;28;20055;-72
2022/11/12 14:03:04;;;;;;;14.13;12.93;;;;;;;12.43;66.98;101696.94;10512575;27;20052;-72
2022/11/12 14:08:25;;;;;;;14.40;13.10;;;;;;;12.14;68.02;101680.13;10511254;28;20060;-72
2022/11/12 14:13:27;;;;;;;14.20;12.95;;;;;;;12.05;68.78;101673.56;10511440;27;20040;-77
2022/11/12 14:18:58;;;;;;;14.60;13.32;;;;;;;11.90;69.55;101677.19;10517132;27;20052;-72
2022/11/12 14:24:02;;;;;;;16.63;15.13;;;;;;;11.66;70.85;101665.31;10510250;28;20039;-73
2022/11/12 14:29:04;;;;;;;14.93;13.73;;;;;;;11.46;71.92;101669.19;10488125;28;20059;-72
2022/11/12 14:34:19;;;;;;;15.98;14.45;;;;;;;11.28;73.17;101665.84;10511074;28;20134;-71
2022/11/12 14:39:27;;;;;;;14.70;13.20;;;;;;;11.08;74.22;101658.19;10493151;28;20040;-71
2022/11/12 14:44:34;;;;;;;15.88;14.55;;;;;;;10.85;75.41;101663.09;10508827;28;20564;-70
2022/11/12 14:49:42;;;;;;;12.93;11.50;;;;;;;10.46;76.51;101659.16;10511303;28;20060;-71
2022/11/12 14:54:56;;;;;;;9.73;8.93;;;;;;;10.19;78.04;101654.47;10553094;28;20047;-71
2022/11/12 14:59:57;;;;;;;11.85;10.85;;;;;;;10.02;79.62;101665.19;10511656;28;20060;-71
2022/11/12 15:05:00;;;;;;;9.43;8.63;;;;;;;9.89;80.62;101663.22;10508323;28;20052;-71
2022/11/12 15:10:32;;;;;;;10.55;9.63;;;;;;;9.81;81.19;101649.47;10494302;28;20059;-71
2022/11/12 15:15:37;;;;;;;10.13;9.18;;;;;;;9.70;81.87;101668.66;10501457;27;20564;-70
2022/11/12 15:20:39;;;;;;;11.48;10.48;;;;;;;9.53;83.23;101666.03;10504502;28;20056;-72
2022/11/12 15:25:40;;;;;;;11.70;10.60;;;;;;;9.61;83.28;101662.97;10505634;27;20043;-71
2022/11/12 15:30:58;;;;;;;13.63;12.30;;;;;;;9.52;83.01;101656.38;10505741;28;20052;-71
2022/11/12 15:36:00;;;;;;;16.35;14.85;;;;;;;9.44;83.22;101639.97;10505499;28;20130;-70
2022/11/12 15:41:03;;;;;;;14.02;12.63;;;;;;;9.39;83.80;101642.88;10509642;28;20058;-70
2022/11/12 15:46:04;;;;;;;14.15;12.85;;;;;;;9.36;84.00;101648.34;10491254;28;20052;-70
2022/11/12 15:51:08;;;;;;;14.68;13.20;;;;;;;9.38;84.17;101644.69;10493461;28;20062;-70
2022/11/12 15:56:18;;;;;;;14.70;13.20;;;;;;;9.35;84.09;101630.69;10482876;28;20055;-70
2022/11/12 16:01:20;;;;;;;14.18;12.82;;;;;;;9.27;83.87;101627.59;10503790;28;20062;-70
2022/11/12 16:06:21;;;;;;;14.57;13.10;;;;;;;9.17;84.03;101625.41;10508107;28;20169;-70
2022/11/12 16:11:35;;;;;;;13.35;12.05;;;;;;;9.18;84.34;101629.78;10525702;28;20055;-71
2022/11/12 16:16:38;;;;;;;12.37;11.27;;;;;;;9.16;84.10;101615.72;10516015;28;20353;-71
2022/11/12 16:21:40;;;;;;;11.90;10.80;;;;;;;9.16;84.52;101620.19;10507353;28;21006;-70
2022/11/12 16:26:41;;;;;;;12.30;11.10;;;;;;;9.06;84.34;101614.50;10506500;28;21231;-71
2022/11/12 16:31:43;;;;;;;13.05;11.85;;;;;;;8.93;85.12;101613.41;10502759;28;20052;-71
2022/11/12 16:36:46;;;;;;;12.20;11.00;;;;;;;8.81;85.70;101610.47;10520621;28;20058;-72
2022/11/12 16:41:47;;;;;;;12.93;10.35;;;;;;;8.72;86.16;101610.94;10499820;28;20048;-71
2022/11/12 16:46:48;;;;;;;11.30;10.25;;;;;;;8.70;86.81;101612.78;10511853;28;20056;-71
2022/11/12 16:51:50;;;;;;;12.55;11.27;;;;;;;8.66;87.80;101605.91;10512135;28;20052;-71
2022/11/12 16:56:51;;;;;;;11.50;10.40;;;;;;;8.70;87.31;101602.19;10539256;28;20130;-74
2022/11/12 17:01:52;;;;;;;11.82;10.63;;;;;;;8.65;87.68;101622.81;10541747;28;20050;-71
2022/11/12 17:06:55;;;;;;;11.43;10.32;;;;;;;8.61;88.54;101607.97;10548201;28;20058;-72
2022/11/12 17:11:57;;;;;;;12.60;11.38;;;;;;;8.71;88.81;101603.91;10551586;28;20048;-73
2022/11/12 17:16:58;;;;;;;16.75;13.20;;;;;;;8.81;88.44;101599.84;10553534;27;20905;-72
2022/11/12 17:21:59;;;;;;;12.85;11.63;;;;;;;8.91;88.56;101604.66;10519127;27;20051;-70
2022/11/12 17:27:01;;;;;;;13.88;12.57;;;;;;;8.88;88.67;101594.22;10511135;28;20046;-70
2022/11/12 17:32:02;;;;;;;12.88;11.60;;;;;;;8.91;89.01;101599.38;10505732;27;20055;-71
2022/11/12 17:37:04;;;;;;;11.48;10.35;;;;;;;8.91;88.25;101594.06;10492562;28;20051;-75
2022/11/12 17:42:05;;;;;;;10.10;9.20;;;;;;;8.94;87.56;101593.88;10507818;28;20070;-71
2022/11/12 17:47:06;;;;;;;9.75;8.85;;;;;;;8.90;87.27;101597.63;10512604;28;20051;-71
2022/11/12 17:52:07;;;;;;;8.25;7.45;;;;;;;8.99;86.47;101597.16;10507633;27;20422;-70
2022/11/12 17:57:09;;;;;;;8.77;7.97;;;;;;;9.00;85.31;101604.19;10489331;28;20059;-70
2022/11/12 18:02:11;;;;;;;11.05;9.73;;;;;;;8.89;85.12;101587.94;10504483;28;20139;-70
2022/11/12 18:07:12;;;;;;;11.05;9.98;;;;;;;8.85;85.64;101589.91;10507244;28;20171;-70
2022/11/12 18:12:14;;;;;;;9.70;8.80;;;;;;;8.75;85.75;101584.22;10512100;28;20656;-70
2022/11/12 18:17:15;;;;;;;10.10;9.15;;;;;;;8.63;86.68;101584.84;10511528;28;20059;-72
2022/11/12 18:22:18;;;;;;;10.45;9.55;;;;;;;8.66;87.24;101582.91;10509805;28;20066;-69
2022/11/12 18:27:19;;;;;;;9.43;8.52;;;;;;;8.76;86.56;101580.63;10532546;27;20043;-71
2022/11/12 18:32:20;;;;;;;9.73;8.82;;;;;;;8.77;85.96;101581.50;10554476;27;20067;-74
2022/11/12 18:37:22;;;;;;;12.07;10.88;;;;;;;8.62;86.62;101585.78;10520470;28;20050;-73
2022/11/12 18:42:23;;;;;;;9.38;8.57;;;;;;;8.62;86.28;101589.31;10519016;28;20565;-70
2022/11/12 18:47:25;;;;;;;8.85;8.05;;;;;;;8.58;85.37;101587.72;10498299;27;20055;-70
2022/11/12 18:52:26;;;;;;;8.90;8.07;;;;;;;8.45;85.73;101571.59;10511063;28;20105;-70
2022/11/12 18:57:28;;;;;;;8.18;7.47;;;;;;;8.49;86.44;101567.81;10492404;28;20054;-70
2022/11/12 19:02:29;;;;;;;9.15;8.35;;;;;;;8.35;86.70;101559.69;10494454;28;20352;-72
2022/11/12 19:07:30;;;;;;;9.63;8.57;;;;;;;8.25;87.26;101547.81;10509021;28;20056;-72
2022/11/12 19:12:32;;;;;;;9.52;8.63;;;;;;;8.26;87.52;101545.09;10482504;27;20047;-71
2022/11/12 19:17:33;;;;;;;9.73;8.77;;;;;;;8.20;87.51;101547.19;10495795;28;20062;-70
2022/11/12 19:22:34;;;;;;;9.05;8.25;;;;;;;8.24;87.58;101546.97;10512730;28;20056;-72
2022/11/12 19:27:36;;;;;;;9.15;8.15;;;;;;;8.19;87.13;101548.13;10503706;27;20044;-72
2022/11/12 19:32:37;;;;;;;10.23;9.07;;;;;;;8.09;87.72;101548.59;10521430;27;20047;-71
2022/11/12 19:37:38;;;;;;;8.85;7.95;;;;;;;8.02;88.01;101547.16;10523432;27;20689;-70
2022/11/12 19:42:39;;;;;;;9.65;8.65;;;;;;;7.99;88.41;101544.66;10515397;27;20638;-71
2022/11/12 19:47:41;;;;;;;12.75;10.23;;;;;;;8.06;88.54;101537.25;10510528;28;20047;-71
2022/11/12 19:52:42;;;;;;;10.88;8.65;;;;;;;8.07;89.00;101545.13;10510771;28;20062;-70
2022/11/12 19:57:44;;;;;;;10.60;9.50;;;;;;;8.12;88.72;101536.94;10512388;27;20062;-71
2022/11/12 20:02:45;;;;;;;10.18;9.10;;;;;;;8.09;88.76;101547.69;10513396;28;20055;-71
2022/11/12 20:07:47;;;;;;;9.43;8.52;;;;;;;8.05;88.92;101546.16;10489737;28;20054;-71
2022/11/12 20:12:49;;;;;;;9.63;8.63;;;;;;;8.02;88.54;101533.91;10508046;28;20051;-71
2022/11/12 20:17:50;;;;;;;9.73;8.38;;;;;;;8.03;88.74;101532.09;10494386;28;20055;-71
2022/11/12 20:22:51;;;;;;;8.38;7.68;;;;;;;7.99;88.69;101534.06;10538832;27;20049;-71
2022/11/12 20:27:52;;;;;;;12.90;8.95;;;;;;;7.90;88.74;101526.56;10511304;27;20044;-71
2022/11/12 20:32:54;;;;;;;10.00;8.00;;;;;;;7.87;89.18;101521.41;10502188;28;20768;-70
2022/11/12 20:37:55;;;;;;;8.43;7.63;;;;;;;7.84;88.68;101521.56;10501911;27;20189;-74
2022/11/12 20:42:56;;;;;;;7.50;6.90;;;;;;;7.81;88.10;101511.06;10502120;28;20540;-71
2022/11/12 20:47:58;;;;;;;6.88;6.30;;;;;;;7.82;88.42;101519.00;10502872;28;20048;-71
2022/11/12 20:52:59;;;;;;;7.05;6.35;;;;;;;7.89;87.41;101514.22;10504168;28;20091;-69
2022/11/12 20:58:00;;;;;;;8.13;7.40;;;;;;;7.74;87.64;101503.44;10485803;28;20344;-71
2022/11/12 21:03:02;;;;;;;7.35;6.75;;;;;;;7.70;88.89;101503.66;10506915;28;20151;-69
2022/11/12 21:08:03;;;;;;;10.43;7.13;;;;;;;7.65;88.31;101490.63;10502557;28;20408;-69
2022/11/12 21:13:05;;;;;;;7.70;6.95;;;;;;;7.55;88.79;101484.06;10504588;28;20445;-69
2022/11/12 21:18:06;;;;;;;7.95;7.15;;;;;;;7.49;89.33;101487.00;10513763;28;20324;-70
2022/11/12 21:23:07;;;;;;;7.72;6.93;;;;;;;7.51;89.21;101485.16;10492271;28;20738;-70
2022/11/12 21:28:08;;;;;;;7.88;6.97;;;;;;;7.45;89.28;101488.94;10511092;28;20047;-70
2022/11/12 21:33:11;;;;;;;9.20;7.15;;;;;;;7.48;88.60;101483.50;10484147;28;20059;-71
2022/11/12 21:38:12;;;;;;;7.47;6.80;;;;;;;7.46;88.92;101484.50;10506749;28;20040;-70
2022/11/12 21:43:13;;;;;;;7.72;6.70;;;;;;;7.43;88.35;101475.78;10505110;28;20604;-70
2022/11/12 21:48:15;;;;;;;7.70;7.00;;;;;;;7.36;88.64;101466.41;10493047;27;20059;-71
2022/11/12 21:53:16;;;;;;;7.55;6.53;;;;;;;7.42;88.69;101466.09;10513060;28;21227;-71
2022/11/12 21:58:17;;;;;;;7.72;7.03;;;;;;;7.39;88.67;101460.94;10496185;28;20655;-69
2022/11/12 22:03:18;;;;;;;7.57;6.88;;;;;;;7.42;88.85;101452.84;10529467;28;20047;-71
2022/11/12 22:08:20;;;;;;;6.72;6.13;;;;;;;7.38;88.94;101451.28;10533080;28;20055;-72
2022/11/12 22:13:21;;;;;;;6.95;6.35;;;;;;;7.28;89.36;101444.72;10522109;27;20464;-72
2022/11/12 22:18:31;;;;;;;9.23;6.55;;;;;;;7.30;89.09;101447.31;10530173;27;20040;-70
2022/11/12 22:23:34;;;;;;;6.80;6.10;;;;;;;7.34;89.54;101436.47;10560308;28;20469;-71
2022/11/12 22:28:36;;;;;;;7.18;6.47;;;;;;;7.32;89.39;101435.69;10553043;27;20366;-71
2022/11/12 22:33:38;;;;;;;7.20;6.28;;;;;;;7.24;89.28;101425.47;10532015;28;20070;-69
2022/11/12 22:38:42;;;;;;;7.20;6.60;;;;;;;7.21;89.98;101422.09;10530753;28;20048;-72
2022/11/12 22:43:51;;;;;;;7.43;5.95;;;;;;;7.37;89.61;101423.09;10523784;27;20048;-71
2022/11/12 22:48:53;;;;;;;8.02;5.95;;;;;;;7.21;89.06;101416.81;10549335;28;20188;-71
2022/11/12 22:54:00;;;;;;;7.97;5.72;;;;;;;7.07;89.47;101409.50;10565152;28;20031;-72
2022/11/12 22:59:04;;;;;;;7.88;6.38;;;;;;;7.11;89.06;101411.09;10541308;28;20074;-70
2022/11/12 23:04:06;;;;;;;6.15;5.60;;;;;;;7.00;89.20;101403.66;10525700;28;20043;-71
2022/11/12 23:09:13;;;;;;;8.25;7.45;;;;;;;7.11;88.98;101411.09;10531666;27;20058;-71
2022/11/12 23:14:14;;;;;;;6.03;5.53;;;;;;;6.93;88.46;101402.22;10519354;28;20054;-72
2022/11/12 23:19:16;;;;;;;6.18;5.43;;;;;;;6.94;88.69;101397.81;10514728;28;20715;-72
2022/11/12 23:24:17;;;;;;;6.68;6.10;;;;;;;6.88;88.49;101393.66;10530138;28;20052;-71
2022/11/12 23:29:19;;;;;;;6.07;5.57;;;;;;;6.83;87.90;101403.56;10521268;28;20051;-70
2022/11/12 23:34:20;;;;;;;5.38;4.97;;;;;;;6.84;87.59;101397.34;10528963;28;20054;-70
2022/11/12 23:39:22;;;;;;;5.35;4.95;;;;;;;6.84;87.82;101397.34;10552361;28;20074;-72
2022/11/12 23:44:23;;;;;;;6.35;5.10;;;;;;;6.79;87.06;101388.78;10559741;28;20048;-71
2022/11/12 23:49:24;;;;;;;5.82;5.32;;;;;;;6.72;87.09;101373.19;10573357;28;20051;-73